createdAt,value
2022-08-26T00:09:54.484Z,18.25
2022-08-26T00:20:32.945Z,18.21
2022-08-26T00:31:11.265Z,18.14
2022-08-26T00:42:09.669Z,18.00
2022-08-26T00:52:48.297Z,18.04
2022-08-26T01:03:36.731Z,17.96
2022-08-26T01:14:15.580Z,17.89
2022-08-26T01:25:13.125Z,17.71
2022-08-26T01:36:10.126Z,17.84
2022-08-26T01:47:00.899Z,17.76
2022-08-26T01:57:56.268Z,17.54
2022-08-26T02:08:59.449Z,17.25
2022-08-26T02:19:40.437Z,17.55
2022-08-26T02:30:40.821Z,17.53
2022-08-26T02:41:45.148Z,17.36
2022-08-26T02:52:46.136Z,17.44
2022-08-26T03:03:28.703Z,17.38
2022-08-26T03:14:15.058Z,17.30
2022-08-26T03:25:02.764Z,17.35
2022-08-26T03:36:03.933Z,17.36
2022-08-26T03:46:51.965Z,17.23
2022-08-26T03:57:49.967Z,17.14
2022-08-26T04:08:51.590Z,17.21
2022-08-26T04:19:42.812Z,17.35
2022-08-26T04:30:38.194Z,17.26
2022-08-26T04:41:27.520Z,17.29
2022-08-26T04:52:23.618Z,17.39
2022-08-26T05:03:18.502Z,17.58
2022-08-26T05:14:18.943Z,17.77
2022-08-26T05:25:16.538Z,18.07
2022-08-26T05:36:17.025Z,18.49
2022-08-26T05:46:57.438Z,18.79
2022-08-26T05:57:54.535Z,19.20
2022-08-26T06:08:35.669Z,19.55
2022-08-26T06:19:38.586Z,19.83
2022-08-26T06:30:33.034Z,20.42
2022-08-26T06:41:33.969Z,20.87
2022-08-26T06:52:34.718Z,21.16
2022-08-26T07:03:31.612Z,21.54
2022-08-26T07:14:34.180Z,22.42
2022-08-26T07:25:20.142Z,23.09
2022-08-26T07:36:04.272Z,23.40
2022-08-26T07:47:00.776Z,23.74
2022-08-26T07:58:02.533Z,24.26
2022-08-26T08:08:45.660Z,24.48
2022-08-26T08:19:42.796Z,24.67
2022-08-26T08:30:40.185Z,25.25
2022-08-26T08:41:36.053Z,25.75
2022-08-26T08:52:31.941Z,25.92
2022-08-26T09:03:28.197Z,26.15
2022-08-26T09:14:06.596Z,26.65
2022-08-26T09:24:57.667Z,26.80
2022-08-26T09:35:41.224Z,26.94
2022-08-26T09:46:34.906Z,27.34
2022-08-26T09:57:31.927Z,27.76
2022-08-26T10:08:31.872Z,28.04
2022-08-26T10:19:33.203Z,28.34
2022-08-26T10:30:33.581Z,29.06
2022-08-26T10:41:33.986Z,29.46
2022-08-26T10:52:34.194Z,30.11
2022-08-26T11:03:34.941Z,30.79
2022-08-26T11:14:34.107Z,32.27
2022-08-26T11:25:38.048Z,31.55
2022-08-26T11:36:41.018Z,33.95
2022-08-26T11:47:42.303Z,36.40
2022-08-26T11:58:36.240Z,36.69
2022-08-26T12:09:36.422Z,37.25
2022-08-26T12:20:35.489Z,37.34
2022-08-26T12:31:34.874Z,37.00
2022-08-26T12:42:36.302Z,36.34
2022-08-26T12:53:36.611Z,37.77
2022-08-26T13:04:25.055Z,36.71
2022-08-26T13:15:21.629Z,36.57
2022-08-26T13:26:19.450Z,35.75
2022-08-26T13:37:18.539Z,37.31
2022-08-26T13:48:14.692Z,36.61
2022-08-26T13:59:00.673Z,35.51
2022-08-26T14:09:56.064Z,36.33
2022-08-26T14:20:31.529Z,36.78
2022-08-26T14:31:01.748Z,31.84
2022-08-26T14:41:33.433Z,31.76
2022-08-26T14:52:24.581Z,31.34
2022-08-26T15:02:59.082Z,30.94
2022-08-26T15:13:32.137Z,30.79
2022-08-26T15:24:08.764Z,31.05
2022-08-26T15:35:08.165Z,31.82
2022-08-26T15:46:03.832Z,31.27
2022-08-26T15:57:05.364Z,31.08
2022-08-26T16:07:51.195Z,30.18
2022-08-26T16:18:38.611Z,29.10
2022-08-26T16:29:30.422Z,28.34
2022-08-26T16:40:16.648Z,27.92
2022-08-26T16:51:05.118Z,27.31
2022-08-26T17:02:00.094Z,26.68
2022-08-26T17:12:51.645Z,26.20
2022-08-26T17:23:44.847Z,25.72
2022-08-26T17:34:31.777Z,25.37
2022-08-26T17:45:22.830Z,24.85
2022-08-26T17:56:11.055Z,24.57
2022-08-26T18:07:05.083Z,24.26
2022-08-26T18:17:39.419Z,23.75
2022-08-26T18:28:32.964Z,23.67
2022-08-26T18:39:22.115Z,23.37
2022-08-26T18:50:09.987Z,23.12
2022-08-26T19:01:03.563Z,22.81
2022-08-26T19:11:57.065Z,22.54
2022-08-26T19:22:54.640Z,22.34
2022-08-26T19:33:30.552Z,22.16
2022-08-26T19:44:26.594Z,22.07
2022-08-26T19:55:03.431Z,21.75
2022-08-26T20:05:59.279Z,21.61
2022-08-26T20:16:55.707Z,21.49
2022-08-26T20:27:52.306Z,21.33
2022-08-26T20:38:49.888Z,21.19
2022-08-26T20:49:30.001Z,21.12
2022-08-26T21:00:26.997Z,20.98
2022-08-26T21:11:17.127Z,20.74
2022-08-26T21:22:13.324Z,20.79
2022-08-26T21:33:07.895Z,20.72
2022-08-26T21:44:09.534Z,20.57
2022-08-26T21:55:04.368Z,20.54
2022-08-26T22:06:00.869Z,20.43
2022-08-26T22:16:50.664Z,20.35
2022-08-26T22:27:28.297Z,20.19
2022-08-26T22:38:04.598Z,20.01
2022-08-26T22:48:45.637Z,19.91
2022-08-26T22:59:33.980Z,19.90
2022-08-26T23:10:18.422Z,19.83
2022-08-26T23:20:55.854Z,19.69
2022-08-26T23:31:50.280Z,19.68
2022-08-26T23:42:44.516Z,19.63
2022-08-26T23:53:42.196Z,19.43
